Time;durP1;ratioP1;P1;durP2;ratioP2;P2;SDS_P1;SDS_P2;PMS_P1;PMS_P2;Temp;Humidity;BMP_temperature;BMP_pressure;BME280_temperature;BME280_humidity;BME280_pressure;Samples;Min_cycle;Max_cycle;Signal;HPM_P1;HPM_P2
2022/11/30 00:02:40;;;;;;;71.93;44.23;;;4.90;1.00;;;;;;6194328;28;20231;-53
2022/11/30 00:05:43;;;;;;;63.57;41.87;;;5.20;1.00;;;;;;6207553;28;20427;-54
2022/11/30 00:08:47;;;;;;;68.60;41.27;;;5.00;1.00;;;;;;6220588;28;20254;-54
2022/11/30 00:11:50;;;;;;;57.43;40.37;;;4.90;1.00;;;;;;6211765;28;20235;-54
2022/11/30 00:14:53;;;;;;;69.63;43.53;;;5.00;1.00;;;;;;6214504;28;20698;-54
2022/11/30 00:17:56;;;;;;;63.73;42.60;;;4.80;1.00;;;;;;6205807;28;20246;-54
2022/11/30 00:21:00;;;;;;;68.60;42.17;;;4.90;1.00;;;;;;6213532;28;20406;-55
2022/11/30 00:24:05;;;;;;;68.57;43.03;;;5.10;1.00;;;;;;6220135;28;20242;-54
2022/11/30 00:27:08;;;;;;;66.67;42.77;;;5.00;1.00;;;;;;6205414;28;20785;-58
2022/11/30 00:30:13;;;;;;;67.63;42.47;;;5.00;1.00;;;;;;6213949;28;20733;-54
2022/11/30 00:33:16;;;;;;;65.77;41.03;;;4.90;1.00;;;;;;6205798;28;20243;-55
2022/11/30 00:36:20;;;;;;;67.07;43.33;;;5.10;1.00;;;;;;6204727;28;20243;-55
2022/11/30 00:39:25;;;;;;;68.20;42.83;;;4.90;1.00;;;;;;6222796;28;20501;-56
2022/11/30 00:42:34;;;;;;;66.63;42.73;;;5.00;1.00;;;;;;6233000;28;20243;-53
2022/11/30 00:45:37;;;;;;;69.43;44.67;;;4.90;1.00;;;;;;6241876;28;20229;-54
2022/11/30 00:48:41;;;;;;;60.03;39.37;;;4.90;1.00;;;;;;6254243;28;20265;-53
2022/11/30 00:51:44;;;;;;;68.20;42.87;;;5.00;1.00;;;;;;6234202;28;20249;-57
2022/11/30 00:54:48;;;;;;;71.50;44.60;;;4.90;1.00;;;;;;6242134;28;20400;-54
2022/11/30 00:57:51;;;;;;;67.20;43.37;;;5.10;1.00;;;;;;6242906;28;20617;-54
2022/11/30 01:00:54;;;;;;;65.00;42.73;;;5.00;1.00;;;;;;6244332;28;20389;-54
2022/11/30 01:03:57;;;;;;;66.23;42.17;;;4.80;1.00;;;;;;6236099;28;20332;-53
2022/11/30 01:07:00;;;;;;;65.60;43.03;;;4.90;1.00;;;;;;6238294;28;20245;-55
2022/11/30 01:10:05;;;;;;;67.47;45.47;;;5.00;1.00;;;;;;6238666;28;20637;-55
2022/11/30 01:13:10;;;;;;;69.23;43.27;;;4.80;1.00;;;;;;6221932;28;20713;-53
2022/11/30 01:16:15;;;;;;;70.47;43.13;;;4.90;1.00;;;;;;6238465;28;20242;-55
2022/11/30 01:19:18;;;;;;;69.40;43.80;;;4.90;1.00;;;;;;6254144;28;20371;-55
2022/11/30 01:22:21;;;;;;;73.60;45.47;;;4.80;1.00;;;;;;6243933;28;20230;-56
2022/11/30 01:25:25;;;;;;;64.90;43.53;;;4.90;1.00;;;;;;6230750;28;20747;-55
2022/11/30 01:28:28;;;;;;;70.50;43.43;;;4.70;1.00;;;;;;6242030;28;20241;-54
2022/11/30 01:31:31;;;;;;;68.00;43.13;;;5.00;1.00;;;;;;6231592;28;20238;-55
2022/11/30 01:34:34;;;;;;;72.27;45.93;;;4.70;1.00;;;;;;6230908;28;20223;-54
2022/11/30 01:37:37;;;;;;;69.47;45.10;;;4.90;1.00;;;;;;6232039;28;20643;-55
2022/11/30 01:40:49;;;;;;;71.43;43.60;;;4.80;1.00;;;;;;6238664;28;20230;-55
2022/11/30 01:43:55;;;;;;;69.70;45.17;;;4.70;1.00;;;;;;6226664;28;20398;-54
2022/11/30 01:47:00;;;;;;;75.67;44.40;;;5.00;1.00;;;;;;6230380;28;20568;-54
2022/11/30 01:50:08;;;;;;;70.00;43.80;;;4.90;1.00;;;;;;6236585;28;20250;-55
2022/11/30 01:53:11;;;;;;;72.13;44.67;;;4.70;1.00;;;;;;6221259;28;20478;-54
2022/11/30 01:56:16;;;;;;;70.90;45.77;;;4.90;1.00;;;;;;6220288;28;20525;-54
2022/11/30 01:59:21;;;;;;;70.83;45.43;;;5.00;1.00;;;;;;6211825;28;20235;-55
2022/11/30 02:02:30;;;;;;;70.70;43.43;;;4.90;1.00;;;;;;6198588;28;20235;-54
2022/11/30 02:05:35;;;;;;;67.77;45.80;;;4.70;1.00;;;;;;6228967;28;20231;-55
2022/11/30 02:08:39;;;;;;;71.13;44.97;;;4.90;1.00;;;;;;6234488;28;20250;-55
2022/11/30 02:11:43;;;;;;;68.63;44.13;;;4.90;1.00;;;;;;6235447;28;20392;-54
2022/11/30 02:14:50;;;;;;;66.73;44.23;;;4.70;1.00;;;;;;6227567;28;20611;-54
2022/11/30 02:17:59;;;;;;;72.67;44.70;;;4.70;1.00;;;;;;6235300;28;20230;-54
2022/11/30 02:21:10;;;;;;;67.23;44.10;;;4.70;1.00;;;;;;6236998;28;20904;-54
2022/11/30 02:24:30;;;;;;;75.23;46.07;;;5.00;1.00;;;;;;6229836;28;20234;-53
2022/11/30 02:27:49;;;;;;;71.13;44.07;;;5.00;1.00;;;;;;6235926;28;20250;-55
2022/11/30 02:30:54;;;;;;;71.43;43.80;;;4.80;1.00;;;;;;6235583;28;20823;-54
2022/11/30 02:33:59;;;;;;;70.53;43.83;;;4.80;1.00;;;;;;6231935;28;20273;-54
2022/11/30 02:37:04;;;;;;;68.93;43.07;;;4.90;1.00;;;;;;6233322;28;20440;-54
2022/11/30 02:40:09;;;;;;;66.13;43.53;;;4.80;1.00;;;;;;6237526;28;20242;-54
2022/11/30 02:43:12;;;;;;;71.33;45.10;;;4.60;1.00;;;;;;6228328;28;20238;-55
2022/11/30 02:46:23;;;;;;;70.13;45.00;;;4.70;1.00;;;;;;6233012;28;20709;-54
2022/11/30 02:49:33;;;;;;;70.03;44.80;;;4.70;1.00;;;;;;6232993;28;20238;-55
2022/11/30 02:52:36;;;;;;;67.00;43.77;;;4.70;1.00;;;;;;6217474;28;20227;-53
2022/11/30 02:55:39;;;;;;;70.13;42.93;;;4.80;1.00;;;;;;6230446;28;20507;-54
2022/11/30 02:58:42;;;;;;;71.13;45.57;;;4.60;1.00;;;;;;6231607;28;20242;-55
2022/11/30 03:01:47;;;;;;;73.07;45.00;;;4.80;1.00;;;;;;6234225;28;20231;-54
2022/11/30 03:04:50;;;;;;;67.77;42.97;;;4.70;1.00;;;;;;6234320;28;20253;-54
2022/11/30 03:07:52;;;;;;;75.67;44.77;;;4.80;1.00;;;;;;6231748;28;20246;-54
2022/11/30 03:10:55;;;;;;;66.00;43.47;;;4.50;1.00;;;;;;6234207;28;20226;-55
2022/11/30 03:13:58;;;;;;;67.97;43.37;;;4.60;1.00;;;;;;6221599;28;20234;-54
2022/11/30 03:17:04;;;;;;;69.97;41.87;;;4.80;1.00;;;;;;6232427;28;20239;-55
2022/11/30 03:20:08;;;;;;;73.03;44.63;;;4.60;1.00;;;;;;6226451;28;20241;-54
2022/11/30 03:23:11;;;;;;;69.37;44.13;;;4.60;1.00;;;;;;6232690;28;20235;-54
2022/11/30 03:26:14;;;;;;;74.77;46.60;;;4.80;1.00;;;;;;6228259;28;20238;-55
2022/11/30 03:29:17;;;;;;;68.77;44.43;;;4.60;1.00;;;;;;6234338;28;20250;-54
2022/11/30 03:32:21;;;;;;;68.07;42.60;;;4.60;1.00;;;;;;6231827;28;20241;-54
2022/11/30 03:35:24;;;;;;;66.83;44.47;;;4.60;1.00;;;;;;6231866;28;20230;-54
2022/11/30 03:38:27;;;;;;;67.17;43.57;;;4.90;1.00;;;;;;6232697;28;20744;-54
2022/11/30 03:41:30;;;;;;;64.57;43.03;;;4.80;1.00;;;;;;6232776;28;20304;-55
2022/11/30 03:44:33;;;;;;;69.50;43.03;;;4.80;1.00;;;;;;6230439;28;20230;-54
2022/11/30 03:47:38;;;;;;;74.67;45.83;;;4.60;1.00;;;;;;6228955;28;20245;-56
2022/11/30 03:50:48;;;;;;;71.47;43.03;;;4.80;1.00;;;;;;6234071;28;20227;-54
2022/11/30 03:53:51;;;;;;;69.17;42.50;;;4.60;1.00;;;;;;6232293;28;20469;-54
2022/11/30 03:56:54;;;;;;;70.23;44.40;;;4.80;1.00;;;;;;6233205;28;20242;-55
2022/11/30 03:59:57;;;;;;;67.13;42.57;;;4.60;1.00;;;;;;6233464;28;20748;-55
2022/11/30 04:03:01;;;;;;;66.33;43.03;;;4.70;1.00;;;;;;6218862;28;20238;-54
2022/11/30 04:06:05;;;;;;;75.10;46.83;;;4.70;1.00;;;;;;6225339;28;20226;-54
2022/11/30 04:09:09;;;;;;;68.47;43.17;;;4.70;1.00;;;;;;6232666;28;20262;-56
2022/11/30 04:12:12;;;;;;;71.87;46.33;;;4.60;1.00;;;;;;6233187;28;20393;-52
2022/11/30 04:15:15;;;;;;;69.47;43.97;;;4.70;1.00;;;;;;6231436;28;20234;-54
2022/11/30 04:18:21;;;;;;;71.60;45.07;;;4.70;1.00;;;;;;6236933;28;20253;-57
2022/11/30 04:21:24;;;;;;;68.53;45.77;;;4.60;1.00;;;;;;6234635;28;20246;-55
2022/11/30 04:24:27;;;;;;;72.37;44.43;;;4.40;1.00;;;;;;6228408;28;20381;-54
2022/11/30 04:27:30;;;;;;;71.97;45.83;;;4.70;1.00;;;;;;6233694;28;20500;-53
2022/11/30 04:30:33;;;;;;;70.47;44.50;;;4.50;1.00;;;;;;6230360;28;20292;-55
2022/11/30 04:33:38;;;;;;;75.03;44.87;;;4.60;1.00;;;;;;6216876;28;20234;-55
2022/11/30 04:36:41;;;;;;;71.17;45.97;;;4.60;1.00;;;;;;6227905;28;20250;-54
2022/11/30 04:39:44;;;;;;;70.80;44.37;;;4.40;1.00;;;;;;6234137;28;20230;-55
2022/11/30 04:42:47;;;;;;;75.40;43.73;;;4.50;1.00;;;;;;6234620;28;20227;-55
2022/11/30 04:45:50;;;;;;;71.07;44.20;;;4.60;1.00;;;;;;6231528;28;20704;-54
2022/11/30 04:48:54;;;;;;;72.80;46.27;;;4.60;1.00;;;;;;6224502;28;20728;-53
2022/11/30 04:51:57;;;;;;;70.30;43.93;;;4.40;1.00;;;;;;6231814;28;20234;-53
2022/11/30 04:55:00;;;;;;;74.43;45.70;;;4.70;1.00;;;;;;6236165;28;20250;-55
2022/11/30 04:58:03;;;;;;;72.50;45.43;;;4.40;1.00;;;;;;6243498;28;20250;-53
2022/11/30 05:01:07;;;;;;;70.30;45.23;;;4.60;1.00;;;;;;6242304;28;20238;-54
2022/11/30 05:04:11;;;;;;;71.63;44.93;;;4.50;1.00;;;;;;6238144;28;20453;-54
2022/11/30 05:07:15;;;;;;;68.70;43.20;;;4.50;1.00;;;;;;6235451;28;20249;-55
2022/11/30 05:10:18;;;;;;;76.03;46.73;;;4.60;1.00;;;;;;6238424;28;20550;-54
2022/11/30 05:13:21;;;;;;;70.80;45.00;;;4.40;1.00;;;;;;6237708;28;20242;-54
2022/11/30 05:16:24;;;;;;;74.13;44.00;;;4.30;1.00;;;;;;6239723;28;20289;-53
2022/11/30 05:19:29;;;;;;;75.93;45.67;;;4.50;1.00;;;;;;6230948;28;20230;-54
2022/11/30 05:22:33;;;;;;;69.80;45.13;;;4.50;1.00;;;;;;6235942;28;20234;-54
2022/11/30 05:25:36;;;;;;;72.53;45.63;;;4.50;1.00;;;;;;6239411;28;20226;-56
2022/11/30 05:28:39;;;;;;;74.03;43.90;;;4.40;1.00;;;;;;6236810;28;20241;-54
2022/11/30 05:31:42;;;;;;;72.63;45.30;;;4.60;1.00;;;;;;6233163;28;20243;-55
2022/11/30 05:34:46;;;;;;;75.17;45.50;;;4.60;1.00;;;;;;6231807;28;20354;-55
2022/11/30 05:37:53;;;;;;;72.53;43.43;;;4.50;1.00;;;;;;6227563;28;20245;-54
2022/11/30 05:41:00;;;;;;;71.17;44.93;;;4.60;1.00;;;;;;6238353;28;20238;-54
2022/11/30 05:44:03;;;;;;;66.30;42.50;;;4.40;1.00;;;;;;6228212;28;20598;-54
2022/11/30 05:47:06;;;;;;;73.93;45.60;;;4.50;1.00;;;;;;6229224;28;20254;-55
2022/11/30 05:50:11;;;;;;;80.70;47.10;;;4.60;1.00;;;;;;6232636;28;20247;-54
2022/11/30 05:53:14;;;;;;;76.43;46.70;;;4.50;1.00;;;;;;6228264;28;20234;-55
2022/11/30 05:56:19;;;;;;;74.00;45.57;;;4.40;1.00;;;;;;6232212;28;20324;-54
2022/11/30 05:59:23;;;;;;;72.07;44.37;;;4.40;1.00;;;;;;6232225;28;20237;-54
2022/11/30 06:02:26;;;;;;;72.27;44.97;;;4.60;1.00;;;;;;6231022;28;20258;-53
2022/11/30 06:05:35;;;;;;;71.77;44.60;;;4.40;1.00;;;;;;6235035;28;20234;-55
2022/11/30 06:08:38;;;;;;;73.60;44.50;;;4.60;1.00;;;;;;6235750;28;20239;-54
2022/11/30 06:11:41;;;;;;;73.97;44.67;;;4.50;1.00;;;;;;6235615;28;20243;-54
2022/11/30 06:14:44;;;;;;;69.93;42.37;;;4.60;1.00;;;;;;6233523;28;20241;-54
2022/11/30 06:17:47;;;;;;;73.43;44.50;;;4.30;1.00;;;;;;6245763;28;20241;-53
2022/11/30 06:20:51;;;;;;;67.70;43.57;;;4.40;1.00;;;;;;6239309;28;20736;-55
2022/11/30 06:23:54;;;;;;;66.90;42.43;;;4.40;1.00;;;;;;6231528;28;20245;-56
2022/11/30 06:26:57;;;;;;;72.10;43.60;;;4.50;1.00;;;;;;6236313;28;20322;-54
2022/11/30 06:30:00;;;;;;;70.93;43.13;;;4.60;1.00;;;;;;6241769;28;20239;-54
2022/11/30 06:33:03;;;;;;;70.93;43.23;;;4.30;1.00;;;;;;6222252;28;20239;-55
2022/11/30 06:36:08;;;;;;;71.30;43.77;;;4.50;1.00;;;;;;6234977;28;20239;-53
2022/11/30 06:39:12;;;;;;;70.73;43.90;;;4.50;1.00;;;;;;6237906;28;20234;-54
2022/11/30 06:42:18;;;;;;;68.60;42.93;;;4.60;1.00;;;;;;6232124;28;20234;-55
2022/11/30 06:45:21;;;;;;;70.50;43.13;;;4.60;1.00;;;;;;6232350;28;20246;-54
2022/11/30 06:48:24;;;;;;;66.83;43.13;;;4.60;1.00;;;;;;6222423;28;20234;-54
2022/11/30 06:51:28;;;;;;;69.93;42.17;;;4.50;1.00;;;;;;6235268;28;20241;-55
2022/11/30 06:54:31;;;;;;;69.47;42.83;;;4.60;1.00;;;;;;6229896;28;20261;-55
2022/11/30 06:57:34;;;;;;;65.90;41.87;;;4.70;1.00;;;;;;6233947;28;20253;-54
2022/11/30 07:00:38;;;;;;;65.03;42.07;;;4.70;1.00;;;;;;6241078;28;20222;-54
2022/11/30 07:03:42;;;;;;;65.27;40.47;;;4.70;1.00;;;;;;6227526;28;20246;-54
2022/11/30 07:06:46;;;;;;;70.43;42.37;;;4.60;1.00;;;;;;6237346;28;20235;-55
2022/11/30 07:09:50;;;;;;;69.57;42.53;;;4.70;1.00;;;;;;6236145;28;25429;-54
2022/11/30 07:12:54;;;;;;;73.63;44.30;;;4.40;1.00;;;;;;6229039;28;20231;-56
2022/11/30 07:15:57;;;;;;;66.17;41.73;;;4.70;1.00;;;;;;6228299;28;20242;-54
2022/11/30 07:19:00;;;;;;;69.83;42.57;;;4.50;1.00;;;;;;6223361;28;20262;-55
2022/11/30 07:22:04;;;;;;;69.73;41.23;;;4.80;1.00;;;;;;6230135;28;20231;-55
2022/11/30 07:28:29;;;;;;;66.97;42.20;;;4.80;1.00;;;;;;6231909;28;20311;-54
2022/11/30 07:31:34;;;;;;;68.07;42.97;;;4.70;1.00;;;;;;6236003;28;20347;-55
2022/11/30 07:34:37;;;;;;;71.93;44.47;;;4.90;1.00;;;;;;6229547;28;20239;-54
2022/11/30 07:37:41;;;;;;;67.97;43.40;;;4.50;1.00;;;;;;6229866;28;20242;-55
2022/11/30 07:40:44;;;;;;;69.23;43.80;;;4.70;1.00;;;;;;6235408;28;20235;-54
2022/11/30 07:43:47;;;;;;;68.07;44.57;;;4.70;1.00;;;;;;6228132;28;20242;-58
2022/11/30 07:46:50;;;;;;;69.87;42.80;;;4.80;1.00;;;;;;6232343;28;20268;-58
2022/11/30 07:49:53;;;;;;;68.03;43.23;;;4.60;1.00;;;;;;6247738;28;20775;-54
2022/11/30 07:52:58;;;;;;;68.10;42.53;;;4.80;1.00;;;;;;6230292;28;20242;-54
2022/11/30 07:56:05;;;;;;;61.27;39.90;;;4.70;1.00;;;;;;6218893;28;20231;-49
2022/11/30 07:59:09;;;;;;;63.37;42.67;;;4.90;1.00;;;;;;6239192;28;20240;-54
2022/11/30 08:02:12;;;;;;;71.50;42.13;;;4.70;1.00;;;;;;6231301;28;20473;-53
2022/11/30 08:05:15;;;;;;;66.67;42.27;;;4.70;1.00;;;;;;6227217;28;20230;-53
2022/11/30 08:08:20;;;;;;;66.03;42.40;;;4.90;1.00;;;;;;6233916;28;20238;-54
2022/11/30 08:11:24;;;;;;;70.33;43.47;;;4.80;1.00;;;;;;6231937;28;20235;-54
2022/11/30 08:14:27;;;;;;;65.70;42.77;;;4.70;1.00;;;;;;6238444;28;20231;-55
2022/11/30 08:17:30;;;;;;;73.50;42.10;;;4.90;1.00;;;;;;6236605;28;20241;-55
2022/11/30 08:20:33;;;;;;;67.10;42.20;;;4.80;1.00;;;;;;6224065;28;20235;-55
2022/11/30 08:23:39;;;;;;;72.60;44.00;;;4.80;1.00;;;;;;6233682;28;20233;-53
2022/11/30 08:26:42;;;;;;;63.07;41.90;;;4.70;1.00;;;;;;6228706;28;20280;-54
2022/11/30 08:29:45;;;;;;;72.47;44.33;;;5.00;1.00;;;;;;6235798;28;20238;-53
2022/11/30 08:32:48;;;;;;;66.50;42.33;;;4.80;1.00;;;;;;6231193;28;20269;-53
2022/11/30 08:35:51;;;;;;;70.37;42.27;;;4.80;1.00;;;;;;6231759;28;20234;-53
2022/11/30 08:38:57;;;;;;;70.90;41.00;;;5.00;1.00;;;;;;6237853;28;20245;-55
2022/11/30 08:42:01;;;;;;;66.50;41.67;;;5.10;1.00;;;;;;6235670;28;20258;-55
2022/11/30 08:45:04;;;;;;;72.60;43.07;;;5.10;1.00;;;;;;6239669;28;20242;-54
2022/11/30 08:48:07;;;;;;;69.17;43.93;;;5.10;1.00;;;;;;6231588;28;20425;-54
2022/11/30 08:51:13;;;;;;;70.33;41.37;;;4.90;1.00;;;;;;6236617;28;20230;-52
2022/11/30 08:54:17;;;;;;;71.03;41.10;;;5.00;1.00;;;;;;6231383;28;20255;-55
2022/11/30 08:57:21;;;;;;;59.70;40.03;;;5.00;1.00;;;;;;6243504;28;20238;-55
2022/11/30 09:00:24;;;;;;;70.53;42.03;;;5.10;1.00;;;;;;6246042;28;20241;-53
2022/11/30 09:03:27;;;;;;;63.50;42.10;;;5.00;1.00;;;;;;6230195;28;20232;-53
2022/11/30 09:06:30;;;;;;;66.87;41.73;;;5.00;1.00;;;;;;6244863;28;20245;-55
2022/11/30 09:09:35;;;;;;;68.33;42.53;;;5.10;1.00;;;;;;6243211;28;20233;-53
2022/11/30 09:12:40;;;;;;;65.97;41.37;;;5.20;1.00;;;;;;6240012;28;20716;-53
2022/11/30 09:15:43;;;;;;;63.13;40.47;;;5.20;1.00;;;;;;6244292;28;20238;-55
2022/11/30 09:18:47;;;;;;;60.93;40.23;;;5.10;1.00;;;;;;6242229;28;20249;-53
2022/11/30 09:21:50;;;;;;;66.60;41.00;;;5.30;1.00;;;;;;6242254;28;20865;-53
2022/11/30 09:24:55;;;;;;;63.93;40.37;;;5.20;1.00;;;;;;6245453;28;20283;-54
2022/11/30 09:27:58;;;;;;;63.67;40.00;;;5.40;1.00;;;;;;6245505;28;20246;-54
2022/11/30 09:31:02;;;;;;;64.40;41.23;;;5.60;1.00;;;;;;6243792;28;20241;-54
2022/11/30 09:34:05;;;;;;;63.90;41.07;;;5.40;1.00;;;;;;6242714;28;20324;-54
2022/11/30 09:37:08;;;;;;;61.83;40.67;;;5.40;1.00;;;;;;6245048;28;20316;-54
2022/11/30 09:40:14;;;;;;;66.20;41.53;;;5.50;1.00;;;;;;6241190;28;20257;-53
2022/11/30 09:43:30;;;;;;;62.50;40.30;;;5.50;1.00;;;;;;6239638;28;20227;-53
2022/11/30 09:46:39;;;;;;;60.10;39.60;;;5.60;1.00;;;;;;6238958;28;20239;-55
2022/11/30 09:49:44;;;;;;;65.23;41.43;;;5.80;1.00;;;;;;6239845;28;20238;-53
2022/11/30 09:52:51;;;;;;;63.73;40.73;;;5.80;1.00;;;;;;6235432;28;20486;-54
2022/11/30 09:55:56;;;;;;;60.37;40.50;;;6.00;1.00;;;;;;6233007;28;20226;-48
2022/11/30 09:59:03;;;;;;;61.60;38.73;;;5.70;1.00;;;;;;6220841;28;20694;-54
2022/11/30 10:02:15;;;;;;;61.10;40.57;;;6.00;1.00;;;;;;6217447;28;20733;-54
2022/11/30 10:05:21;;;;;;;65.23;41.73;;;6.00;1.00;;;;;;6231643;28;20517;-55
2022/11/30 10:08:49;;;;;;;64.27;41.73;;;5.90;1.00;;;;;;6239684;28;20242;-54
2022/11/30 10:12:02;;;;;;;61.33;40.93;;;5.90;1.00;;;;;;6232315;28;20330;-55
2022/11/30 10:15:26;;;;;;;64.87;40.37;;;5.90;1.00;;;;;;6245443;28;20238;-55
2022/11/30 10:18:39;;;;;;;58.13;39.03;;;6.00;1.00;;;;;;6238141;28;20247;-55
2022/11/30 10:21:54;;;;;;;61.37;39.93;;;6.00;1.00;;;;;;6226286;28;20513;-54
2022/11/30 10:25:11;;;;;;;64.87;40.97;;;6.00;1.00;;;;;;6236057;28;20702;-54
2022/11/30 10:28:18;;;;;;;57.37;38.93;;;6.00;1.00;;;;;;6239053;28;20243;-54
2022/11/30 10:31:43;;;;;;;66.63;40.87;;;6.00;1.00;;;;;;6237297;28;20469;-57
2022/11/30 10:34:48;;;;;;;61.53;39.87;;;6.20;1.00;;;;;;6234798;28;20335;-54
2022/11/30 10:37:53;;;;;;;61.33;39.53;;;6.00;1.00;;;;;;6215963;28;20235;-55
2022/11/30 10:41:02;;;;;;;66.63;41.87;;;6.00;1.00;;;;;;6222859;28;20254;-55
2022/11/30 10:44:12;;;;;;;62.90;40.07;;;6.00;1.00;;;;;;6217938;28;20240;-54
2022/11/30 10:47:20;;;;;;;60.23;40.27;;;6.10;1.00;;;;;;6211551;28;20250;-54
2022/11/30 10:50:28;;;;;;;63.53;40.60;;;6.20;1.00;;;;;;6202965;28;20248;-55
2022/11/30 10:53:32;;;;;;;62.70;40.37;;;6.30;1.00;;;;;;6219442;28;20410;-55
2022/11/30 10:56:35;;;;;;;62.13;40.87;;;6.40;1.00;;;;;;6210581;28;20250;-55
2022/11/30 10:59:44;;;;;;;60.70;39.20;;;6.40;1.00;;;;;;6208478;28;20600;-55
2022/11/30 11:02:49;;;;;;;61.07;41.27;;;6.30;1.00;;;;;;6219339;28;20238;-59
2022/11/30 11:06:10;;;;;;;57.10;39.53;;;6.20;1.00;;;;;;6211085;28;20285;-56
2022/11/30 11:09:33;;;;;;;63.23;40.40;;;6.40;1.00;;;;;;6220571;28;20728;-56
2022/11/30 11:12:37;;;;;;;63.93;41.93;;;6.40;1.00;;;;;;6208787;28;20239;-55
2022/11/30 11:15:56;;;;;;;65.33;41.17;;;6.40;1.00;;;;;;6212670;28;20714;-53
2022/11/30 11:18:59;;;;;;;60.47;39.93;;;6.40;1.00;;;;;;6209614;28;20283;-54
2022/11/30 11:22:05;;;;;;;61.07;40.30;;;6.40;1.00;;;;;;6206253;28;20246;-54
2022/11/30 11:25:11;;;;;;;60.37;40.87;;;6.50;1.00;;;;;;6220231;28;20243;-53
2022/11/30 11:28:19;;;;;;;62.07;41.00;;;6.50;1.00;;;;;;6213220;28;20247;-54
2022/11/30 11:31:35;;;;;;;60.07;40.67;;;6.50;1.00;;;;;;6215296;28;20241;-53
2022/11/30 11:34:38;;;;;;;65.83;41.33;;;6.60;1.00;;;;;;6214334;28;20228;-55
2022/11/30 11:37:51;;;;;;;60.20;41.07;;;6.50;1.00;;;;;;6213014;28;20231;-56
2022/11/30 11:40:57;;;;;;;66.53;42.10;;;6.40;1.00;;;;;;6210796;28;20235;-53
2022/11/30 11:44:03;;;;;;;59.63;39.17;;;6.60;1.00;;;;;;6197812;28;20660;-56
2022/11/30 11:47:20;;;;;;;67.53;42.37;;;6.60;1.00;;;;;;6196691;28;20723;-54
2022/11/30 11:50:31;;;;;;;59.37;40.60;;;6.60;1.00;;;;;;6218209;28;20308;-53
2022/11/30 11:53:58;;;;;;;71.70;42.67;;;6.50;1.00;;;;;;6200549;28;20231;-54
2022/11/30 11:57:02;;;;;;;62.70;41.43;;;6.60;1.00;;;;;;6209649;28;20337;-55
2022/11/30 12:00:11;;;;;;;65.40;42.57;;;6.60;1.00;;;;;;6209320;28;20618;-54
2022/11/30 12:03:29;;;;;;;64.70;42.43;;;6.60;1.00;;;;;;6193567;28;20247;-55
2022/11/30 12:06:34;;;;;;;60.60;40.83;;;6.60;1.00;;;;;;6209539;28;20239;-54
2022/11/30 12:09:55;;;;;;;61.63;40.33;;;6.70;1.00;;;;;;6202698;28;20250;-54
2022/11/30 12:12:59;;;;;;;67.13;43.10;;;6.40;1.00;;;;;;6198237;28;20248;-55
2022/11/30 12:16:15;;;;;;;70.57;43.53;;;6.30;1.00;;;;;;6202597;28;20266;-54
2022/11/30 12:19:24;;;;;;;65.87;43.93;;;6.30;1.00;;;;;;6212196;28;20235;-55
2022/11/30 12:22:47;;;;;;;65.07;42.57;;;6.30;1.00;;;;;;6208558;28;20246;-55
2022/11/30 12:25:57;;;;;;;66.97;43.93;;;6.30;1.00;;;;;;6203727;28;20232;-54
2022/11/30 12:29:18;;;;;;;69.37;44.70;;;6.20;1.00;;;;;;6211335;28;20241;-55
2022/11/30 12:32:34;;;;;;;68.83;44.57;;;6.40;1.00;;;;;;6203643;28;20235;-53
2022/11/30 12:35:49;;;;;;;70.30;44.83;;;6.30;1.00;;;;;;6203146;28;20246;-54
2022/11/30 12:38:57;;;;;;;70.37;43.13;;;6.20;1.00;;;;;;6237228;28;20620;-54
2022/11/30 12:42:07;;;;;;;81.37;47.00;;;6.40;1.00;;;;;;6233962;28;20235;-54
2022/11/30 12:45:19;;;;;;;69.53;45.47;;;6.30;1.00;;;;;;6206712;28;20331;-55
2022/11/30 12:48:31;;;;;;;74.50;47.17;;;6.50;1.00;;;;;;6205922;28;20235;-55
2022/11/30 12:51:40;;;;;;;76.10;49.63;;;6.30;1.00;;;;;;6198765;28;20236;-56
2022/11/30 12:54:54;;;;;;;77.67;48.67;;;6.30;1.00;;;;;;6195961;28;20258;-54
2022/11/30 12:58:04;;;;;;;76.70;48.90;;;6.20;1.00;;;;;;6207809;28;20374;-54
2022/11/30 13:01:21;;;;;;;80.50;50.03;;;6.30;1.00;;;;;;6208002;28;20246;-55
2022/11/30 13:04:30;;;;;;;77.30;48.10;;;6.20;1.00;;;;;;6196854;28;20601;-55
2022/11/30 13:07:42;;;;;;;78.77;48.80;;;6.20;1.00;;;;;;6208033;28;20243;-55
2022/11/30 13:10:49;;;;;;;74.00;46.53;;;6.40;1.00;;;;;;6212519;28;20227;-54
2022/11/30 13:13:56;;;;;;;78.30;46.60;;;6.20;1.00;;;;;;6204437;28;20235;-55
2022/11/30 13:17:02;;;;;;;79.60;46.50;;;6.10;1.00;;;;;;6202149;28;20239;-54
2022/11/30 13:20:15;;;;;;;72.83;45.83;;;6.00;1.00;;;;;;6208814;28;20625;-54
2022/11/30 13:23:30;;;;;;;73.47;44.67;;;5.80;1.00;;;;;;6210120;28;20227;-52
2022/11/30 13:26:41;;;;;;;78.37;48.80;;;5.70;1.00;;;;;;6207278;28;20239;-55
2022/11/30 13:30:07;;;;;;;75.43;45.93;;;6.00;1.00;;;;;;6205615;28;20228;-55
2022/11/30 13:33:37;;;;;;;79.00;46.20;;;5.80;1.00;;;;;;6202971;28;20243;-53
2022/11/30 13:36:42;;;;;;;79.80;46.60;;;5.70;1.00;;;;;;6192327;28;20230;-55
2022/11/30 13:39:49;;;;;;;82.00;46.90;;;5.60;1.00;;;;;;6204028;28;20261;-54
2022/11/30 13:42:55;;;;;;;77.00;45.00;;;5.70;1.00;;;;;;6211053;28;20235;-53
2022/11/30 13:46:22;;;;;;;76.53;47.07;;;5.40;1.00;;;;;;6216252;28;20660;-54
2022/11/30 13:49:30;;;;;;;82.20;48.90;;;5.20;1.00;;;;;;6186459;28;20240;-54
2022/11/30 13:53:08;;;;;;;85.63;49.50;;;5.40;1.00;;;;;;6204572;28;20243;-56
2022/11/30 13:56:33;;;;;;;80.47;48.17;;;5.00;1.00;;;;;;6217991;28;20236;-54
2022/11/30 13:59:45;;;;;;;80.27;48.10;;;5.20;1.00;;;;;;6207573;28;20271;-55
2022/11/30 14:02:53;;;;;;;85.37;48.03;;;4.70;1.00;;;;;;6234656;28;20393;-54
2022/11/30 14:05:57;;;;;;;85.60;49.40;;;4.70;1.00;;;;;;6234779;28;20765;-54
2022/11/30 14:09:00;;;;;;;85.47;47.70;;;4.50;1.00;;;;;;6231546;28;20246;-54
2022/11/30 14:12:43;;;;;;;90.10;48.53;;;4.70;1.00;;;;;;6229282;28;20242;-56
2022/11/30 14:15:56;;;;;;;89.90;49.30;;;4.50;1.00;;;;;;6226668;28;20900;-55
2022/11/30 14:19:00;;;;;;;95.40;51.17;;;4.20;1.00;;;;;;6232201;28;20293;-55
2022/11/30 14:22:04;;;;;;;89.43;47.33;;;4.50;1.00;;;;;;6237062;28;20246;-54
2022/11/30 14:25:12;;;;;;;89.37;48.07;;;4.10;1.00;;;;;;6228592;28;20239;-54
2022/11/30 14:28:21;;;;;;;93.73;50.30;;;4.20;1.00;;;;;;6241490;28;20252;-56
2022/11/30 14:31:26;;;;;;;95.40;49.20;;;4.10;1.00;;;;;;6226786;28;20231;-54
2022/11/30 14:34:35;;;;;;;97.93;49.80;;;3.90;1.00;;;;;;6226020;28;20246;-54
2022/11/30 14:37:43;;;;;;;98.77;50.37;;;3.70;1.00;;;;;;6241489;28;20234;-54
2022/11/30 14:40:50;;;;;;;98.60;50.93;;;3.80;1.00;;;;;;6215698;28;20239;-53
2022/11/30 14:44:03;;;;;;;98.00;50.60;;;3.60;1.00;;;;;;6203199;28;20231;-54
2022/11/30 14:47:14;;;;;;;104.43;50.77;;;3.60;1.00;;;;;;6211186;28;20236;-54
2022/11/30 14:50:23;;;;;;;105.20;51.67;;;3.50;1.00;;;;;;6212089;28;20255;-55
2022/11/30 14:53:35;;;;;;;110.33;52.10;;;3.50;1.00;;;;;;6229103;28;20235;-54
2022/11/30 14:56:45;;;;;;;105.30;53.00;;;3.60;1.00;;;;;;6234631;28;20239;-54
2022/11/30 14:59:52;;;;;;;108.63;52.17;;;3.20;1.00;;;;;;6234505;28;20247;-54
2022/11/30 15:02:55;;;;;;;105.23;52.27;;;3.20;1.00;;;;;;6224577;28;20704;-53
2022/11/30 15:06:00;;;;;;;97.93;49.27;;;3.20;1.00;;;;;;6227372;28;20312;-53
2022/11/30 15:09:04;;;;;;;100.50;47.90;;;3.00;1.00;;;;;;6236483;28;20300;-54
2022/11/30 15:12:07;;;;;;;91.40;45.60;;;3.10;1.00;;;;;;6237535;28;20848;-54
2022/11/30 15:15:17;;;;;;;103.03;47.93;;;3.10;1.00;;;;;;6230479;28;20245;-55
2022/11/30 15:18:22;;;;;;;100.17;47.57;;;2.90;1.00;;;;;;6245188;28;20627;-54
2022/11/30 15:21:27;;;;;;;98.33;48.63;;;3.10;1.00;;;;;;6235778;28;20231;-55
2022/11/30 15:24:30;;;;;;;96.33;46.20;;;2.80;1.00;;;;;;6229292;28;20253;-54
2022/11/30 15:27:33;;;;;;;100.77;47.30;;;3.10;1.00;;;;;;6233530;28;20247;-55
2022/11/30 15:30:41;;;;;;;101.40;47.70;;;3.00;1.00;;;;;;6226082;28;20709;-54
2022/11/30 15:33:46;;;;;;;105.70;49.30;;;2.70;1.00;;;;;;6228810;28;20235;-53
2022/11/30 15:36:52;;;;;;;109.40;48.83;;;2.80;1.00;;;;;;6228308;28;20230;-49
2022/11/30 15:39:58;;;;;;;102.00;46.90;;;2.80;1.00;;;;;;6244908;28;20237;-55
2022/11/30 15:43:02;;;;;;;108.27;45.90;;;2.70;1.00;;;;;;6233382;28;20361;-54
2022/11/30 15:46:07;;;;;;;101.00;46.13;;;2.60;1.00;;;;;;6229745;28;20239;-54
2022/11/30 15:49:23;;;;;;;107.20;45.13;;;2.60;1.00;;;;;;6231715;28;20234;-54
2022/11/30 15:52:28;;;;;;;97.50;46.33;;;2.50;1.00;;;;;;6232307;28;20230;-57
2022/11/30 15:55:42;;;;;;;100.33;45.57;;;2.60;1.00;;;;;;6238690;28;20254;-54
2022/11/30 15:59:00;;;;;;;96.13;43.90;;;2.60;1.00;;;;;;6231710;28;20554;-55
2022/11/30 16:02:07;;;;;;;92.37;45.30;;;2.60;1.00;;;;;;6228909;28;20258;-54
2022/11/30 16:05:25;;;;;;;99.17;44.80;;;2.60;1.00;;;;;;6227007;28;20317;-56
2022/11/30 16:08:29;;;;;;;96.40;44.67;;;2.50;1.00;;;;;;6240506;28;20239;-54
2022/11/30 16:11:34;;;;;;;98.27;45.93;;;2.30;1.00;;;;;;6235793;28;20401;-55
2022/11/30 16:14:37;;;;;;;103.07;44.87;;;2.50;1.00;;;;;;6226550;28;20311;-55